Time;durP1;ratioP1;P1;durP2;ratioP2;P2;SDS_P1;SDS_P2;PMS_P1;PMS_P2;Temp;Humidity;BMP_temperature;BMP_pressure;BME280_temperature;BME280_humidity;BME280_pressure;Samples;Min_cycle;Max_cycle;Signal;HPM_P1;HPM_P2
2023/10/13 00:01:38;;;;;;;38.95;17.90;;;;;;;14.89;100.00;100560.50;5587920;31;34817;-67
2023/10/13 00:04:42;;;;;;;33.53;17.83;;;;;;;14.86;100.00;100560.88;5575727;31;35450;-67
2023/10/13 00:07:45;;;;;;;32.33;17.62;;;;;;;14.81;100.00;100557.97;5590436;31;34285;-67
2023/10/13 00:10:48;;;;;;;31.50;18.45;;;;;;;14.78;100.00;100561.81;5590410;31;34867;-67
2023/10/13 00:13:51;;;;;;;32.55;18.17;;;;;;;14.76;100.00;100574.56;5590525;31;34226;-67
2023/10/13 00:17:20;;;;;;;33.75;18.62;;;;;;;14.75;100.00;100575.56;5590304;31;34822;-67
2023/10/13 00:20:37;;;;;;;31.90;18.95;;;;;;;14.70;100.00;100575.31;5590354;31;34254;-67
2023/10/13 00:23:52;;;;;;;32.78;18.45;;;;;;;14.63;100.00;100567.22;5590727;31;34657;-67
2023/10/13 00:26:55;;;;;;;35.92;18.98;;;;;;;14.54;100.00;100562.19;5590284;31;34314;-67
2023/10/13 00:30:17;;;;;;;32.70;18.33;;;;;;;14.46;100.00;100579.16;5589900;31;35084;-67
2023/10/13 00:33:22;;;;;;;33.03;19.23;;;;;;;14.39;100.00;100572.06;5590311;31;34056;-67
2023/10/13 00:36:25;;;;;;;35.60;19.27;;;;;;;14.32;100.00;100572.00;5590204;31;34347;-67
2023/10/13 00:39:28;;;;;;;37.10;19.98;;;;;;;14.32;100.00;100566.66;5590141;31;34783;-67
2023/10/13 00:42:50;;;;;;;32.95;18.42;;;;;;;14.35;100.00;100564.41;5590101;31;34729;-67
2023/10/13 00:45:56;;;;;;;37.28;19.40;;;;;;;14.41;100.00;100567.38;5590170;31;34252;-67
2023/10/13 00:49:01;;;;;;;38.65;19.35;;;;;;;14.41;100.00;100570.06;5589899;31;35028;-68
2023/10/13 00:52:05;;;;;;;37.65;19.85;;;;;;;14.40;100.00;100555.87;5590110;31;34079;-67
2023/10/13 00:55:11;;;;;;;34.95;19.33;;;;;;;14.43;100.00;100570.69;5589940;31;34062;-67
2023/10/13 00:58:15;;;;;;;30.77;20.00;;;;;;;14.38;100.00;100565.09;5589914;31;34632;-67
2023/10/13 01:01:27;;;;;;;32.58;19.33;;;;;;;14.39;100.00;100570.25;5589919;31;34936;-67
2023/10/13 01:04:31;;;;;;;36.75;20.33;;;;;;;14.44;100.00;100562.50;5590293;31;33983;-67
2023/10/13 01:07:37;;;;;;;37.63;21.02;;;;;;;14.42;100.00;100564.53;5590170;31;34268;-67
2023/10/13 01:10:41;;;;;;;34.90;19.92;;;;;;;14.39;100.00;100551.56;5590054;31;34082;-67
2023/10/13 01:13:50;;;;;;;39.65;19.85;;;;;;;14.37;100.00;100542.09;5589874;31;33985;-67
2023/10/13 01:16:55;;;;;;;36.13;20.17;;;;;;;14.32;100.00;100545.28;5589059;31;34695;-67
2023/10/13 01:19:58;;;;;;;36.90;20.55;;;;;;;14.31;100.00;100546.31;5576184;31;34149;-67
2023/10/13 01:23:10;;;;;;;36.88;20.10;;;;;;;14.31;100.00;100556.97;5590038;31;34768;-67
2023/10/13 01:26:21;;;;;;;34.38;20.05;;;;;;;14.36;100.00;100559.94;5589777;31;34306;-67
2023/10/13 01:29:28;;;;;;;33.42;20.02;;;;;;;14.44;100.00;100559.00;5589616;31;34019;-67
2023/10/13 01:32:31;;;;;;;35.67;20.08;;;;;;;14.44;100.00;100559.00;5589597;31;34468;-67
2023/10/13 01:35:47;;;;;;;39.53;20.30;;;;;;;14.46;100.00;100557.81;5589744;31;34026;-67
2023/10/13 01:38:51;;;;;;;34.75;19.27;;;;;;;14.45;100.00;100556.16;5589653;31;34055;-67
2023/10/13 01:41:57;;;;;;;38.65;20.05;;;;;;;14.46;100.00;100556.97;5589526;31;34216;-67
2023/10/13 01:45:05;;;;;;;31.75;19.05;;;;;;;14.51;100.00;100549.22;5589620;31;34097;-67
2023/10/13 01:48:08;;;;;;;34.85;19.25;;;;;;;14.53;100.00;100555.19;5589572;31;34178;-67
2023/10/13 01:51:12;;;;;;;34.30;19.02;;;;;;;14.50;100.00;100567.09;5589530;31;34643;-67
2023/10/13 01:54:15;;;;;;;38.17;19.73;;;;;;;14.46;100.00;100573.81;5589593;31;35043;-67
2023/10/13 01:57:23;;;;;;;28.27;18.35;;;;;;;14.44;100.00;100577.69;5589945;31;35063;-67
2023/10/13 02:00:27;;;;;;;36.80;19.30;;;;;;;14.39;100.00;100582.75;5576085;31;34783;-67
2023/10/13 02:03:30;;;;;;;30.20;18.87;;;;;;;14.37;100.00;100579.47;5589673;31;34766;-67
2023/10/13 02:06:36;;;;;;;36.55;20.10;;;;;;;14.40;100.00;100576.41;5589924;31;33969;-67
2023/10/13 02:09:39;;;;;;;33.83;19.92;;;;;;;14.43;100.00;100573.34;5575834;31;34324;-67
2023/10/13 02:12:44;;;;;;;34.35;19.75;;;;;;;14.47;100.00;100574.66;5589274;31;34757;-67
2023/10/13 02:15:48;;;;;;;35.28;19.58;;;;;;;14.54;100.00;100575.53;5589270;31;34340;-67
2023/10/13 02:18:53;;;;;;;35.00;19.40;;;;;;;14.60;100.00;100572.94;5589791;31;34197;-67
2023/10/13 02:21:59;;;;;;;30.20;18.60;;;;;;;14.62;100.00;100572.78;5589623;31;34004;-67
2023/10/13 02:25:05;;;;;;;35.20;19.50;;;;;;;14.65;100.00;100573.22;5575531;31;34016;-67
2023/10/13 02:28:13;;;;;;;33.58;18.70;;;;;;;14.64;100.00;100570.72;5588519;31;34745;-68
2023/10/13 02:31:19;;;;;;;39.15;18.48;;;;;;;14.63;100.00;100567.22;5589571;31;34018;-67
2023/10/13 02:34:24;;;;;;;34.30;18.95;;;;;;;14.63;100.00;100569.91;5589073;31;34340;-67
2023/10/13 02:37:28;;;;;;;33.67;19.62;;;;;;;14.62;100.00;100576.25;5589121;31;34121;-67
2023/10/13 02:40:35;;;;;;;32.35;18.77;;;;;;;14.61;100.00;100587.13;5589097;31;34306;-67
2023/10/13 02:43:38;;;;;;;29.20;19.08;;;;;;;14.61;100.00;100568.44;5589105;31;34704;-67
2023/10/13 02:46:43;;;;;;;31.37;18.50;;;;;;;14.59;100.00;100573.13;5588926;31;34069;-67
2023/10/13 02:49:47;;;;;;;31.40;18.48;;;;;;;14.64;100.00;100581.41;5589115;31;33953;-67
2023/10/13 02:52:52;;;;;;;30.50;17.95;;;;;;;14.68;100.00;100594.19;5588964;31;34083;-67
2023/10/13 02:56:05;;;;;;;33.28;18.33;;;;;;;14.68;100.00;100606.72;5589354;31;34117;-67
2023/10/13 02:59:08;;;;;;;33.65;17.98;;;;;;;14.88;100.00;100620.28;5588883;31;34704;-67
2023/10/13 03:02:17;;;;;;;30.25;17.40;;;;;;;14.97;100.00;100625.31;5588963;31;34142;-67
2023/10/13 03:05:22;;;;;;;29.17;17.80;;;;;;;14.95;100.00;100623.84;5588752;31;34447;-67
2023/10/13 03:08:27;;;;;;;29.65;17.42;;;;;;;14.93;100.00;100610.69;5588736;31;34258;-67
2023/10/13 03:11:33;;;;;;;35.03;19.40;;;;;;;14.87;100.00;100597.25;5588634;31;34038;-67
2023/10/13 03:14:36;;;;;;;29.27;17.90;;;;;;;14.86;100.00;100599.13;5575066;31;34050;-67
2023/10/13 03:17:43;;;;;;;31.55;17.37;;;;;;;14.92;100.00;100608.19;5574914;31;34203;-67
2023/10/13 03:20:51;;;;;;;44.83;16.73;;;;;;;14.93;100.00;100604.50;5588718;31;34001;-67
2023/10/13 03:23:55;;;;;;;25.98;16.77;;;;;;;14.93;100.00;100596.50;5588613;31;34002;-67
2023/10/13 03:27:08;;;;;;;32.42;17.42;;;;;;;14.94;100.00;100587.47;5588449;31;33990;-68
2023/10/13 03:30:15;;;;;;;30.98;17.65;;;;;;;14.94;100.00;100574.12;5588830;31;34010;-68
2023/10/13 03:33:28;;;;;;;36.35;18.58;;;;;;;14.89;100.00;100565.84;5588368;31;34323;-68
2023/10/13 03:36:56;;;;;;;33.22;19.15;;;;;;;14.93;100.00;100564.44;5588216;31;34984;-68
2023/10/13 03:39:59;;;;;;;33.97;20.23;;;;;;;14.84;100.00;100566.41;5589878;31;34111;-68
2023/10/13 03:43:07;;;;;;;35.35;20.17;;;;;;;14.81;100.00;100572.16;5591146;31;34033;-68
2023/10/13 03:46:10;;;;;;;32.97;19.35;;;;;;;14.84;100.00;100546.88;5590481;31;34048;-68
2023/10/13 03:49:20;;;;;;;35.55;20.27;;;;;;;14.87;100.00;100563.34;5590480;31;34094;-68
2023/10/13 03:52:25;;;;;;;35.78;20.33;;;;;;;14.93;100.00;100559.94;5590539;31;32703;-68
2023/10/13 03:55:34;;;;;;;36.25;21.40;;;;;;;14.99;100.00;100543.13;5590593;31;34027;-69
2023/10/13 03:58:47;;;;;;;35.70;20.95;;;;;;;15.07;100.00;100531.47;5590597;31;34143;-70
2023/10/13 04:01:58;;;;;;;39.35;21.70;;;;;;;14.95;100.00;100535.69;5590483;31;34167;-70
2023/10/13 04:05:09;;;;;;;36.05;20.62;;;;;;;14.97;100.00;100513.09;5564905;31;34125;-70
2023/10/13 04:11:52;;;;;;;36.90;21.48;;;;;;;14.91;100.00;100542.44;5590408;31;34107;-70
2023/10/13 04:18:01;;;;;;;35.42;19.73;;;;;;;14.88;100.00;100510.75;5590300;31;34058;-70
2023/10/13 04:21:18;;;;;;;37.08;21.48;;;;;;;14.92;100.00;100515.53;5590288;31;34009;-70
2023/10/13 04:27:43;;;;;;;39.03;21.37;;;;;;;14.86;100.00;100534.19;5590377;31;34820;-70
2023/10/13 04:34:02;;;;;;;40.53;21.05;;;;;;;14.85;100.00;100535.19;5590157;31;34045;-70
2023/10/13 04:40:37;;;;;;;36.00;21.65;;;;;;;14.89;100.00;100533.78;5560406;31;34310;-70
2023/10/13 04:43:55;;;;;;;38.75;21.52;;;;;;;14.96;100.00;100532.00;5589962;31;34101;-71
2023/10/13 04:50:21;;;;;;;41.00;22.17;;;;;;;14.98;100.00;100544.16;5589739;31;34277;-71
2023/10/13 04:53:33;;;;;;;35.58;21.35;;;;;;;14.95;100.00;100536.53;5589670;31;34134;-70
2023/10/13 05:44:53;;;;;;;37.63;18.65;;;;;;;15.33;100.00;100616.41;5589474;31;33780;-70
2023/10/13 05:48:11;;;;;;;34.60;19.98;;;;;;;15.32;100.00;100618.25;5589144;31;34336;-70
2023/10/13 06:28:40;;;;;;;44.53;19.10;;;;;;;16.12;100.00;100649.09;5588888;31;34052;-70
2023/10/13 06:31:45;;;;;;;36.20;18.58;;;;;;;16.12;100.00;100657.94;5588940;31;34082;-70
2023/10/13 06:34:50;;;;;;;32.03;17.90;;;;;;;16.25;100.00;100668.75;5588816;31;34670;-71
2023/10/13 06:37:54;;;;;;;34.10;18.75;;;;;;;16.30;100.00;100676.19;5588917;31;34668;-72
2023/10/13 06:40:57;;;;;;;36.70;18.05;;;;;;;16.30;100.00;100678.84;5588528;31;34796;-71
2023/10/13 06:44:00;;;;;;;37.20;18.77;;;;;;;16.21;100.00;100667.47;5588928;31;34097;-71
2023/10/13 06:47:04;;;;;;;36.90;18.60;;;;;;;16.27;100.00;100687.25;5588791;31;34699;-71
2023/10/13 06:50:16;;;;;;;35.25;18.73;;;;;;;16.30;100.00;100694.91;5588614;31;34667;-71
2023/10/13 06:53:19;;;;;;;34.65;19.00;;;;;;;16.25;100.00;100692.00;5574532;31;34445;-71
2023/10/13 06:56:27;;;;;;;42.97;19.48;;;;;;;16.36;100.00;100702.16;5588483;31;34783;-71
2023/10/13 06:59:32;;;;;;;34.55;20.37;;;;;;;16.21;100.00;100701.47;5588669;31;34231;-70
2023/10/13 07:02:35;;;;;;;40.88;20.05;;;;;;;16.14;100.00;100705.91;5588545;31;34100;-71
2023/10/13 07:05:39;;;;;;;33.80;20.15;;;;;;;16.22;100.00;100713.78;5588760;31;34781;-71
2023/10/13 07:08:49;;;;;;;41.13;20.90;;;;;;;16.36;100.00;100726.25;5588302;31;34037;-71
2023/10/13 07:11:52;;;;;;;37.08;20.83;;;;;;;16.41;100.00;100721.94;5588212;31;35451;-71
2023/10/13 07:15:10;;;;;;;36.78;20.73;;;;;;;16.16;100.00;100695.88;5588605;31;34237;-71
2023/10/13 07:18:15;;;;;;;47.15;21.23;;;;;;;16.27;100.00;100696.12;5588287;31;34739;-71
2023/10/13 07:21:30;;;;;;;35.92;21.20;;;;;;;16.33;100.00;100711.41;5574679;31;34088;-71
2023/10/13 07:24:39;;;;;;;45.58;21.42;;;;;;;16.43;100.00;100719.09;5588470;31;34862;-71
2023/10/13 07:27:42;;;;;;;41.90;22.02;;;;;;;16.34;100.00;100709.56;5588349;31;34121;-71
2023/10/13 07:34:05;;;;;;;41.30;21.75;;;;;;;16.42;100.00;100698.69;5588267;31;34783;-71
2023/10/13 07:37:12;;;;;;;44.08;22.80;;;;;;;16.39;100.00;100693.72;5588234;31;33932;-71
2023/10/13 07:43:27;;;;;;;37.42;21.35;;;;;;;16.99;100.00;100708.25;5588411;31;34645;-71
2023/10/13 07:46:35;;;;;;;41.05;22.15;;;;;;;17.14;100.00;100706.19;5587913;31;34697;-71
2023/10/13 07:49:39;;;;;;;43.72;21.08;;;;;;;17.21;100.00;100704.38;5588035;31;33915;-70
2023/10/13 07:53:04;;;;;;;38.72;21.23;;;;;;;17.02;100.00;100700.63;5587998;31;33982;-70
2023/10/13 07:56:13;;;;;;;39.15;20.77;;;;;;;17.34;100.00;100710.59;5587826;31;34233;-70
2023/10/13 07:59:21;;;;;;;44.22;20.73;;;;;;;17.26;100.00;100704.59;5574127;31;34071;-70
2023/10/13 08:02:48;;;;;;;42.15;20.35;;;;;;;17.25;100.00;100705.63;5587537;31;34726;-70
2023/10/13 08:06:06;;;;;;;41.83;21.00;;;;;;;17.35;100.00;100708.75;5588017;31;34656;-70
2023/10/13 08:09:18;;;;;;;42.13;20.02;;;;;;;17.51;100.00;100721.78;5573916;31;34070;-70
2023/10/13 08:12:31;;;;;;;41.65;20.12;;;;;;;17.60;100.00;100711.69;5587339;31;34103;-70
2023/10/13 08:15:34;;;;;;;38.75;20.27;;;;;;;17.61;100.00;100708.81;5587718;31;34137;-69
2023/10/13 08:18:41;;;;;;;42.35;19.83;;;;;;;17.83;100.00;100706.75;5587469;31;33987;-68
2023/10/13 08:22:14;;;;;;;41.40;19.55;;;;;;;17.90;100.00;100702.22;5587181;31;34732;-69
2023/10/13 08:25:24;;;;;;;40.70;19.02;;;;;;;18.07;100.00;100700.72;5588546;31;34225;-69
2023/10/13 08:32:14;;;;;;;43.40;20.20;;;;;;;18.47;100.00;100698.78;5589919;31;34658;-69
2023/10/13 08:35:25;;;;;;;34.80;19.65;;;;;;;18.48;100.00;100716.56;5589762;31;34089;-69
2023/10/13 08:38:43;;;;;;;36.80;19.05;;;;;;;18.64;100.00;100710.72;5589856;31;34180;-70
2023/10/13 08:42:23;;;;;;;42.03;18.60;;;;;;;18.84;100.00;100709.84;5590014;31;34765;-68
2023/10/13 08:48:31;;;;;;;34.05;19.05;;;;;;;19.28;100.00;100720.56;5589866;31;34004;-68
2023/10/13 08:51:47;;;;;;;42.50;18.87;;;;;;;19.39;100.00;100724.44;5576196;31;34749;-69
2023/10/13 08:55:03;;;;;;;36.95;19.60;;;;;;;19.00;100.00;100729.00;5589615;31;34035;-69
2023/10/13 08:58:15;;;;;;;36.35;18.80;;;;;;;19.10;100.00;100729.38;5577190;31;34909;-69
2023/10/13 09:04:44;;;;;;;32.78;18.00;;;;;;;19.48;100.00;100726.69;5589582;31;34029;-68
2023/10/13 09:07:47;;;;;;;48.28;19.20;;;;;;;19.22;100.00;100720.62;5589645;31;34097;-68
2023/10/13 09:11:13;;;;;;;39.92;18.75;;;;;;;19.46;100.00;100714.50;5589479;31;34097;-68
2023/10/13 09:14:33;;;;;;;42.72;18.73;;;;;;;19.41;100.00;100717.00;5589905;31;34068;-68
2023/10/13 09:17:53;;;;;;;39.08;18.23;;;;;;;19.84;100.00;100715.25;5590068;31;34647;-69
2023/10/13 09:21:17;;;;;;;38.65;18.55;;;;;;;20.19;100.00;100725.47;5589397;31;34052;-68
2023/10/13 09:24:29;;;;;;;42.17;18.45;;;;;;;20.26;100.00;100710.06;5589368;31;34027;-68
2023/10/13 09:27:33;;;;;;;44.22;18.02;;;;;;;20.58;100.00;100710.78;5589612;31;34068;-68
2023/10/13 09:30:46;;;;;;;41.10;18.35;;;;;;;20.75;100.00;100714.53;5589678;31;34047;-69
2023/10/13 09:33:55;;;;;;;46.17;18.77;;;;;;;21.03;100.00;100719.34;5575145;31;34738;-69
2023/10/13 09:36:59;;;;;;;32.13;17.62;;;;;;;21.16;100.00;100719.19;5588775;31;34676;-69
2023/10/13 09:40:07;;;;;;;35.83;17.33;;;;;;;20.95;100.00;100717.81;5589414;31;34080;-69
2023/10/13 09:43:14;;;;;;;75.07;18.05;;;;;;;21.07;100.00;100721.37;5589276;31;34040;-69
2023/10/13 09:46:26;;;;;;;33.15;16.62;;;;;;;21.35;100.00;100711.91;5589051;31;34204;-70
2023/10/13 09:49:48;;;;;;;33.42;17.15;;;;;;;21.51;100.00;100717.44;5589167;31;34112;-69
2023/10/13 09:52:52;;;;;;;33.50;17.02;;;;;;;20.78;100.00;100712.19;5575840;31;33971;-70
2023/10/13 09:56:19;;;;;;;34.47;17.08;;;;;;;21.27;100.00;100717.59;5589667;31;34115;-69
2023/10/13 09:59:34;;;;;;;31.95;16.60;;;;;;;21.67;100.00;100711.37;5589405;31;35076;-69
2023/10/13 10:02:44;;;;;;;30.92;17.08;;;;;;;21.95;100.00;100707.22;5575697;31;35608;-69
2023/10/13 10:06:04;;;;;;;30.87;16.30;;;;;;;21.55;100.00;100712.41;5589118;31;34239;-69
2023/10/13 10:09:11;;;;;;;29.55;17.10;;;;;;;21.14;100.00;100705.13;5589585;31;33952;-69
2023/10/13 10:12:52;;;;;;;38.60;17.80;;;;;;;21.19;100.00;100714.19;5589249;31;34017;-70
2023/10/13 10:15:56;;;;;;;;;;;;;;;21.95;100.00;100701.81;5589537;31;34827;-69
2023/10/13 10:19:01;;;;;;;29.37;16.17;;;;;;;22.23;100.00;100698.37;5575466;31;34421;-69
2023/10/13 10:22:16;;;;;;;38.85;16.58;;;;;;;21.61;100.00;100682.59;5589035;31;34806;-69
2023/10/13 10:25:28;;;;;;;35.97;17.67;;;;;;;21.34;100.00;100680.56;5587960;31;34058;-69
2023/10/13 10:28:36;;;;;;;41.78;17.77;;;;;;;21.73;100.00;100679.94;5588203;31;34731;-69
2023/10/13 10:31:41;;;;;;;44.97;18.20;;;;;;;21.72;100.00;100680.16;5588738;31;34189;-69
2023/10/13 10:34:44;;;;;;;37.35;17.45;;;;;;;21.71;100.00;100665.81;5589925;31;34009;-68
2023/10/13 10:37:47;;;;;;;33.42;16.65;;;;;;;21.62;100.00;100673.47;5589229;31;34545;-67
2023/10/13 10:40:58;;;;;;;33.40;16.85;;;;;;;21.82;100.00;100667.72;5588690;31;34751;-68
2023/10/13 10:44:08;;;;;;;37.92;18.02;;;;;;;21.93;100.00;100657.97;5588612;31;34276;-69
2023/10/13 10:47:19;;;;;;;38.00;17.67;;;;;;;21.83;100.00;100658.56;5588160;31;34066;-69
2023/10/13 10:50:34;;;;;;;31.25;15.60;;;;;;;21.97;100.00;100653.78;5575085;31;34742;-68
2023/10/13 10:53:44;;;;;;;35.15;16.52;;;;;;;22.26;100.00;100644.69;5588711;31;34169;-69
2023/10/13 10:56:53;;;;;;;;;;;;;;;23.00;100.00;100644.81;5589074;31;35809;-69
2023/10/13 11:00:11;;;;;;;38.05;15.45;;;;;;;24.91;100.00;100654.22;5588745;31;34429;-69
2023/10/13 11:03:14;;;;;;;41.67;15.55;;;;;;;26.19;83.03;100653.06;5588493;31;34770;-69
2023/10/13 11:06:20;;;;;;;29.65;13.07;;;;;;;27.68;72.60;100651.34;5588545;31;34697;-69
2023/10/13 11:12:34;;;;;;;34.10;13.50;;;;;;;27.06;71.51;100646.91;5588505;31;34264;-70
2023/10/13 11:15:44;;;;;;;26.33;13.85;;;;;;;27.55;67.83;100641.78;5588686;31;34693;-70
2023/10/13 11:18:47;;;;;;;26.42;13.73;;;;;;;26.05;78.78;100634.78;5588413;31;34782;-70
2023/10/13 11:21:54;;;;;;;32.38;13.00;;;;;;;26.90;74.89;100636.28;5574432;31;34198;-70
2023/10/13 11:24:59;;;;;;;27.73;12.55;;;;;;;26.77;78.72;100626.69;5588603;31;34380;-70
2023/10/13 11:28:29;;;;;;;28.77;12.75;;;;;;;26.59;79.72;100624.44;5588695;31;34002;-70
2023/10/13 11:31:32;;;;;;;28.48;13.70;;;;;;;26.32;78.67;100627.34;5588174;31;34043;-70
2023/10/13 11:34:41;;;;;;;31.87;13.05;;;;;;;25.98;80.82;100617.91;5588245;31;34049;-70
2023/10/13 11:37:44;;;;;;;26.35;12.60;;;;;;;26.35;81.07;100626.81;5587958;31;34262;-70
2023/10/13 11:47:47;;;;;;;27.58;13.32;;;;;;;26.01;85.73;100618.19;5587593;31;34818;-70
2023/10/13 11:50:50;;;;;;;35.65;13.55;;;;;;;25.34;91.58;100609.81;5587771;31;33995;-70
2023/10/13 11:53:53;;;;;;;32.50;13.00;;;;;;;25.69;87.95;100609.28;5587640;31;35407;-70
2023/10/13 11:56:58;;;;;;;30.20;12.95;;;;;;;26.03;87.71;100605.16;5587493;31;34150;-70
2023/10/13 12:00:26;;;;;;;29.73;12.57;;;;;;;26.22;93.64;100605.53;5588507;31;35003;-70
2023/10/13 12:13:05;;;;;;;37.88;13.05;;;;;;;24.89;99.32;100597.47;5589845;31;34521;-70
2023/10/13 12:16:09;;;;;;;38.85;13.02;;;;;;;25.34;94.75;100585.38;5590248;31;34162;-70
2023/10/13 12:19:12;;;;;;;25.12;11.73;;;;;;;25.48;94.67;100600.13;5590145;31;34599;-70
2023/10/13 12:22:25;;;;;;;30.35;12.45;;;;;;;25.63;95.61;100594.84;5590003;31;34731;-69
2023/10/13 12:28:41;;;;;;;30.92;12.23;;;;;;;25.17;96.52;100571.94;5589936;31;34872;-69
2023/10/13 12:31:50;;;;;;;33.25;12.40;;;;;;;25.27;97.14;100579.34;5576197;31;34647;-69
2023/10/13 12:38:05;;;;;;;32.22;11.35;;;;;;;25.00;100.00;100573.94;5589856;31;34800;-68
2023/10/13 12:54:38;;;;;;;;;;;;;;;26.20;90.31;100553.28;5590162;31;34217;-70
2023/10/13 12:57:43;;;;;;;25.25;9.95;;;;;;;25.80;86.10;100552.00;5589748;31;34497;-69
2023/10/13 13:00:48;;;;;;;26.55;9.63;;;;;;;25.85;89.85;100543.88;5589974;31;34115;-69
2023/10/13 13:03:56;;;;;;;36.78;9.52;;;;;;;25.55;85.41;100549.16;5576042;31;33971;-69
2023/10/13 13:06:59;;;;;;;19.65;8.88;;;;;;;25.61;87.88;100544.59;5589795;31;34005;-69
2023/10/13 13:10:01;;;;;;;25.60;8.90;;;;;;;25.91;85.83;100539.28;5589751;31;34145;-69
2023/10/13 13:13:05;;;;;;;23.15;9.23;;;;;;;26.27;84.49;100535.66;5589461;31;34127;-69
2023/10/13 13:16:09;;;;;;;25.10;8.90;;;;;;;26.35;81.46;100535.13;5589315;31;34949;-67
2023/10/13 13:19:14;;;;;;;26.35;9.02;;;;;;;25.99;84.14;100533.38;5589528;31;34153;-68
2023/10/13 13:22:17;;;;;;;24.83;8.68;;;;;;;26.01;84.16;100530.34;5589400;31;34054;-68
2023/10/13 13:25:29;;;;;;;25.58;8.20;;;;;;;26.12;78.37;100529.31;5589642;31;33929;-68
2023/10/13 13:28:37;;;;;;;23.83;8.05;;;;;;;26.19;80.69;100521.75;5589035;31;34088;-68
2023/10/13 13:31:42;;;;;;;19.25;7.53;;;;;;;26.56;74.29;100521.59;5575222;31;34011;-68
2023/10/13 13:34:54;;;;;;;17.98;7.55;;;;;;;26.34;75.97;100521.78;5588383;31;33984;-68
2023/10/13 13:38:06;;;;;;;20.42;7.22;;;;;;;26.20;75.54;100521.47;5589163;31;33996;-69
2023/10/13 13:41:16;;;;;;;19.45;6.65;;;;;;;26.30;71.02;100518.81;5588869;31;34024;-69
2023/10/13 13:44:20;;;;;;;19.65;6.75;;;;;;;26.20;67.57;100512.47;5589319;31;33959;-68
2023/10/13 13:47:23;;;;;;;17.95;6.78;;;;;;;26.10;67.58;100512.44;5588886;31;34858;-69
2023/10/13 13:50:29;;;;;;;19.67;6.25;;;;;;;26.17;70.14;100516.56;5589699;31;34084;-70
2023/10/13 13:53:34;;;;;;;23.52;6.65;;;;;;;26.27;65.42;100513.91;5589053;31;34070;-70
2023/10/13 13:56:40;;;;;;;20.83;6.57;;;;;;;26.07;64.86;100511.09;5589276;31;34838;-69
2023/10/13 13:59:45;;;;;;;23.15;7.05;;;;;;;25.89;64.37;100512.38;5589040;31;34065;-70
2023/10/13 14:02:48;;;;;;;22.40;6.53;;;;;;;25.74;68.19;100511.50;5574940;31;34294;-69
2023/10/13 14:05:52;;;;;;;23.52;6.22;;;;;;;25.63;67.06;100507.06;5588668;31;34159;-69
2023/10/13 14:08:59;;;;;;;16.48;6.35;;;;;;;25.50;70.08;100495.59;5587770;31;34032;-69
2023/10/13 14:15:24;;;;;;;26.35;6.80;;;;;;;25.23;67.90;100488.59;5588928;31;34766;-69
2023/10/13 14:18:30;;;;;;;24.83;7.10;;;;;;;25.03;68.07;100492.81;5588779;31;34441;-69
2023/10/13 14:21:34;;;;;;;20.08;6.43;;;;;;;24.90;71.22;100495.97;5574719;31;35019;-69
2023/10/13 14:24:47;;;;;;;20.98;6.55;;;;;;;24.87;64.48;100492.97;5574732;31;33986;-70
2023/10/13 14:27:50;;;;;;;15.93;5.35;;;;;;;24.75;68.14;100489.56;5588324;31;34030;-70
2023/10/13 14:30:53;;;;;;;23.55;6.22;;;;;;;24.59;70.66;100492.13;5588568;31;34054;-69
2023/10/13 14:33:59;;;;;;;15.52;5.43;;;;;;;24.39;68.92;100483.81;5588129;31;33945;-70
2023/10/13 14:37:04;;;;;;;22.62;6.50;;;;;;;24.41;66.08;100478.13;5588337;31;34843;-69
2023/10/13 14:40:12;;;;;;;21.20;6.43;;;;;;;24.39;70.10;100480.28;5588159;31;33971;-69
2023/10/13 14:43:15;;;;;;;18.07;5.27;;;;;;;24.42;66.11;100477.06;5588246;31;34091;-69
2023/10/13 14:46:22;;;;;;;18.35;5.47;;;;;;;24.51;62.24;100470.09;5587740;31;33972;-70
2023/10/13 14:49:26;;;;;;;19.62;5.35;;;;;;;24.42;68.17;100472.44;5573036;31;34871;-69
2023/10/13 14:52:31;;;;;;;21.35;5.65;;;;;;;24.23;70.30;100463.84;5586449;31;35312;-69
2023/10/13 14:55:38;;;;;;;20.05;5.65;;;;;;;23.95;70.70;100468.66;5586507;31;34223;-69
2023/10/13 14:58:42;;;;;;;18.25;5.95;;;;;;;23.91;66.88;100475.66;5586542;31;34867;-69
2023/10/13 15:01:46;;;;;;;20.20;5.97;;;;;;;23.75;74.41;100466.53;5586783;31;34387;-69
2023/10/13 15:04:50;;;;;;;25.37;6.00;;;;;;;23.55;75.87;100472.50;5572752;31;34132;-69
2023/10/13 15:07:55;;;;;;;28.02;6.12;;;;;;;23.49;74.99;100464.53;5586670;31;34029;-69
2023/10/13 15:11:12;;;;;;;38.05;6.43;;;;;;;23.34;80.19;100474.06;5586462;31;34047;-68
2023/10/13 15:14:15;;;;;;;21.30;5.53;;;;;;;23.05;87.28;100467.13;5586526;31;34110;-70
2023/10/13 15:17:18;;;;;;;19.45;5.50;;;;;;;22.87;84.97;100470.91;5585982;31;34031;-69
2023/10/13 15:20:23;;;;;;;23.60;5.78;;;;;;;22.65;87.15;100461.06;5585984;31;34406;-70
2023/10/13 15:23:26;;;;;;;39.45;6.12;;;;;;;22.50;92.81;100464.31;5585990;31;34706;-69
2023/10/13 15:26:38;;;;;;;35.78;6.87;;;;;;;22.32;94.58;100469.91;5586336;31;34628;-69
2023/10/13 15:29:41;;;;;;;26.60;5.97;;;;;;;22.15;100.00;100466.34;5573060;31;34224;-69
2023/10/13 15:32:44;;;;;;;26.30;6.25;;;;;;;21.94;98.73;100462.44;5586030;31;34092;-69
2023/10/13 15:35:48;;;;;;;24.02;6.43;;;;;;;21.76;100.00;100459.88;5584412;31;34701;-69
2023/10/13 15:38:52;;;;;;;27.95;6.85;;;;;;;21.56;100.00;100461.09;5585822;31;34206;-68
2023/10/13 15:41:58;;;;;;;19.95;6.87;;;;;;;21.41;100.00;100457.25;5585883;31;34173;-69
2023/10/13 15:45:16;;;;;;;26.80;6.87;;;;;;;21.24;100.00;100459.84;5585384;31;34078;-69
2023/10/13 15:48:22;;;;;;;23.65;6.85;;;;;;;21.08;100.00;100460.53;5580961;31;180211;-69
2023/10/13 15:51:25;;;;;;;24.45;6.53;;;;;;;20.89;100.00;100453.59;5587205;31;35106;-69
2023/10/13 15:54:28;;;;;;;19.30;5.97;;;;;;;20.70;100.00;100460.97;5587625;31;34239;-69
2023/10/13 15:57:36;;;;;;;25.58;6.30;;;;;;;20.52;100.00;100459.16;5586789;31;33976;-70
2023/10/13 16:00:39;;;;;;;27.17;6.50;;;;;;;20.34;100.00;100456.53;5586607;31;34159;-70
2023/10/13 16:03:43;;;;;;;20.42;6.80;;;;;;;20.15;100.00;100458.41;5586602;31;34166;-69
2023/10/13 16:06:47;;;;;;;27.40;7.72;;;;;;;19.96;100.00;100460.31;5586741;31;34750;-69
2023/10/13 16:09:57;;;;;;;26.08;7.32;;;;;;;19.83;100.00;100455.13;5587070;31;34430;-69
2023/10/13 16:13:05;;;;;;;33.10;7.93;;;;;;;19.68;100.00;100461.94;5586797;31;34272;-69
2023/10/13 16:16:16;;;;;;;22.62;7.53;;;;;;;19.56;100.00;100461.06;5586927;31;34060;-69
2023/10/13 16:19:23;;;;;;;27.90;8.35;;;;;;;19.41;100.00;100461.38;5586811;31;34111;-69
2023/10/13 16:22:26;;;;;;;22.95;7.60;;;;;;;19.30;100.00;100464.81;5586467;31;35083;-69
2023/10/13 16:25:29;;;;;;;34.72;7.70;;;;;;;19.25;100.00;100460.09;5586328;31;34008;-68
2023/10/13 16:28:34;;;;;;;30.88;8.15;;;;;;;19.10;100.00;100463.13;5586550;31;33992;-69
2023/10/13 16:31:37;;;;;;;25.88;7.87;;;;;;;19.00;100.00;100453.91;5572803;31;34860;-69
2023/10/13 16:34:39;;;;;;;22.65;7.43;;;;;;;18.88;100.00;100458.38;5586712;31;34277;-69
2023/10/13 16:37:45;;;;;;;27.75;8.23;;;;;;;18.79;100.00;100456.97;5586626;31;34174;-69
2023/10/13 16:40:51;;;;;;;33.58;8.50;;;;;;;18.69;100.00;100457.47;5586762;31;34395;-69
2023/10/13 16:43:54;;;;;;;36.88;9.30;;;;;;;18.60;100.00;100454.25;5572822;31;33951;-69
2023/10/13 16:47:00;;;;;;;26.62;8.70;;;;;;;18.52;100.00;100457.16;5588613;31;33992;-69
2023/10/13 16:50:03;;;;;;;29.27;9.18;;;;;;;18.46;100.00;100465.25;5589510;31;34083;-68
2023/10/13 16:53:08;;;;;;;24.58;8.70;;;;;;;18.36;100.00;100455.00;5588981;31;34956;-69
2023/10/13 16:56:11;;;;;;;29.50;9.35;;;;;;;18.29;100.00;100456.91;5589720;31;34015;-69